sensor_id;sensor_type;location;lat;lon;timestamp;temperature;humidity
56162;DHT22;42045;52.986;6.014;2023-07-24T00:02:05;16.40;99.90
56162;DHT22;42045;52.986;6.014;2023-07-24T00:04:31;16.30;99.90
56162;DHT22;42045;52.986;6.014;2023-07-24T00:06:57;16.30;99.90
56162;DHT22;42045;52.986;6.014;2023-07-24T00:09:23;16.30;99.90
56162;DHT22;42045;52.986;6.014;2023-07-24T00:11:49;16.40;99.90
56162;DHT22;42045;52.986;6.014;2023-07-24T00:14:15;16.40;99.90
56162;DHT22;42045;52.986;6.014;2023-07-24T00:16:41;16.40;99.90
56162;DHT22;42045;52.986;6.014;2023-07-24T00:19:07;16.40;99.90
56162;DHT22;42045;52.986;6.014;2023-07-24T00:21:32;16.50;99.90
56162;DHT22;42045;52.986;6.014;2023-07-24T00:23:58;16.60;99.90
56162;DHT22;42045;52.986;6.014;2023-07-24T00:26:24;16.70;99.90
56162;DHT22;42045;52.986;6.014;2023-07-24T00:28:49;16.70;99.90
56162;DHT22;42045;52.986;6.014;2023-07-24T00:31:15;16.70;99.90
56162;DHT22;42045;52.986;6.014;2023-07-24T00:33:41;16.80;99.90
56162;DHT22;42045;52.986;6.014;2023-07-24T00:36:06;16.80;99.90
56162;DHT22;42045;52.986;6.014;2023-07-24T00:38:32;16.80;99.90
56162;DHT22;42045;52.986;6.014;2023-07-24T00:40:58;16.80;99.90
56162;DHT22;42045;52.986;6.014;2023-07-24T00:43:23;16.80;99.90
56162;DHT22;42045;52.986;6.014;2023-07-24T00:45:49;16.80;99.90
56162;DHT22;42045;52.986;6.014;2023-07-24T00:48:15;16.80;99.90
56162;DHT22;42045;52.986;6.014;2023-07-24T00:50:42;16.80;99.90
56162;DHT22;42045;52.986;6.014;2023-07-24T00:53:11;16.70;99.90
56162;DHT22;42045;52.986;6.014;2023-07-24T00:55:37;16.70;99.90
56162;DHT22;42045;52.986;6.014;2023-07-24T00:58:03;16.70;99.90
56162;DHT22;42045;52.986;6.014;2023-07-24T01:00:29;16.60;99.90
56162;DHT22;42045;52.986;6.014;2023-07-24T01:02:56;16.60;99.90
56162;DHT22;42045;52.986;6.014;2023-07-24T01:05:23;16.60;99.90
56162;DHT22;42045;52.986;6.014;2023-07-24T01:07:50;16.50;99.90
56162;DHT22;42045;52.986;6.014;2023-07-24T01:10:16;16.50;99.90
56162;DHT22;42045;52.986;6.014;2023-07-24T01:18:10;16.40;99.90
56162;DHT22;42045;52.986;6.014;2023-07-24T01:20:37;16.30;99.90
56162;DHT22;42045;52.986;6.014;2023-07-24T01:25:57;16.20;99.90
56162;DHT22;42045;52.986;6.014;2023-07-24T01:28:24;16.30;99.90
56162;DHT22;42045;52.986;6.014;2023-07-24T01:30:50;16.20;99.90
56162;DHT22;42045;52.986;6.014;2023-07-24T01:33:17;16.20;99.90
56162;DHT22;42045;52.986;6.014;2023-07-24T01:35:43;16.10;99.90
56162;DHT22;42045;52.986;6.014;2023-07-24T01:38:13;16.00;99.90
56162;DHT22;42045;52.986;6.014;2023-07-24T01:40:42;16.00;99.90
56162;DHT22;42045;52.986;6.014;2023-07-24T01:43:08;16.00;99.90
56162;DHT22;42045;52.986;6.014;2023-07-24T01:45:34;15.90;99.90
56162;DHT22;42045;52.986;6.014;2023-07-24T01:48:04;15.90;99.90
56162;DHT22;42045;52.986;6.014;2023-07-24T01:50:31;15.90;99.90
56162;DHT22;42045;52.986;6.014;2023-07-24T01:52:57;15.90;99.90
56162;DHT22;42045;52.986;6.014;2023-07-24T01:55:22;15.90;99.90
56162;DHT22;42045;52.986;6.014;2023-07-24T01:57:48;16.00;99.90
56162;DHT22;42045;52.986;6.014;2023-07-24T02:00:14;16.00;99.90
56162;DHT22;42045;52.986;6.014;2023-07-24T02:02:39;16.00;99.90
56162;DHT22;42045;52.986;6.014;2023-07-24T02:05:05;15.90;99.90
56162;DHT22;42045;52.986;6.014;2023-07-24T02:07:31;15.90;99.90
56162;DHT22;42045;52.986;6.014;2023-07-24T02:09:56;16.00;99.90
56162;DHT22;42045;52.986;6.014;2023-07-24T02:12:22;15.90;99.90
56162;DHT22;42045;52.986;6.014;2023-07-24T02:14:48;16.00;99.90
56162;DHT22;42045;52.986;6.014;2023-07-24T02:17:16;16.00;99.90
56162;DHT22;42045;52.986;6.014;2023-07-24T02:19:41;16.00;99.90
56162;DHT22;42045;52.986;6.014;2023-07-24T02:22:07;16.00;99.90
56162;DHT22;42045;52.986;6.014;2023-07-24T02:24:33;16.00;99.90
56162;DHT22;42045;52.986;6.014;2023-07-24T02:26:58;16.00;99.90
56162;DHT22;42045;52.986;6.014;2023-07-24T02:29:24;16.10;99.90
56162;DHT22;42045;52.986;6.014;2023-07-24T02:31:50;16.10;99.90
56162;DHT22;42045;52.986;6.014;2023-07-24T02:34:16;16.10;99.90
56162;DHT22;42045;52.986;6.014;2023-07-24T02:36:42;16.10;99.90
56162;DHT22;42045;52.986;6.014;2023-07-24T02:39:08;16.20;99.90
56162;DHT22;42045;52.986;6.014;2023-07-24T02:41:33;16.20;99.90
56162;DHT22;42045;52.986;6.014;2023-07-24T02:43:59;16.20;99.90
56162;DHT22;42045;52.986;6.014;2023-07-24T02:46:25;16.20;99.90
56162;DHT22;42045;52.986;6.014;2023-07-24T02:48:52;16.30;99.90
56162;DHT22;42045;52.986;6.014;2023-07-24T02:51:17;16.20;99.90
56162;DHT22;42045;52.986;6.014;2023-07-24T02:53:43;16.20;99.90
56162;DHT22;42045;52.986;6.014;2023-07-24T02:56:09;16.30;99.90
56162;DHT22;42045;52.986;6.014;2023-07-24T02:58:34;16.30;99.90
56162;DHT22;42045;52.986;6.014;2023-07-24T03:01:07;16.30;99.90
56162;DHT22;42045;52.986;6.014;2023-07-24T03:03:33;16.40;99.90
56162;DHT22;42045;52.986;6.014;2023-07-24T03:05:59;16.40;99.90
56162;DHT22;42045;52.986;6.014;2023-07-24T03:08:25;16.40;99.90
56162;DHT22;42045;52.986;6.014;2023-07-24T03:10:51;16.40;99.90
56162;DHT22;42045;52.986;6.014;2023-07-24T03:13:16;16.40;99.90
56162;DHT22;42045;52.986;6.014;2023-07-24T03:15:42;16.50;99.90
56162;DHT22;42045;52.986;6.014;2023-07-24T03:18:07;16.50;99.90
56162;DHT22;42045;52.986;6.014;2023-07-24T03:20:33;16.50;99.90
56162;DHT22;42045;52.986;6.014;2023-07-24T03:22:59;16.50;99.90
56162;DHT22;42045;52.986;6.014;2023-07-24T03:25:24;16.50;99.90
56162;DHT22;42045;52.986;6.014;2023-07-24T03:27:50;16.40;99.90
56162;DHT22;42045;52.986;6.014;2023-07-24T03:30:16;16.30;99.90
56162;DHT22;42045;52.986;6.014;2023-07-24T03:32:41;16.30;99.90
56162;DHT22;42045;52.986;6.014;2023-07-24T03:35:07;16.20;99.90
56162;DHT22;42045;52.986;6.014;2023-07-24T03:37:34;16.20;99.90
56162;DHT22;42045;52.986;6.014;2023-07-24T03:40:00;16.20;99.90
56162;DHT22;42045;52.986;6.014;2023-07-24T03:42:27;16.10;99.90
56162;DHT22;42045;52.986;6.014;2023-07-24T03:44:54;16.10;99.90
56162;DHT22;42045;52.986;6.014;2023-07-24T03:47:19;16.10;99.90
56162;DHT22;42045;52.986;6.014;2023-07-24T03:49:45;16.10;99.90
56162;DHT22;42045;52.986;6.014;2023-07-24T03:52:11;16.10;99.90
56162;DHT22;42045;52.986;6.014;2023-07-24T03:54:36;16.10;99.90
56162;DHT22;42045;52.986;6.014;2023-07-24T03:57:02;16.10;99.90
56162;DHT22;42045;52.986;6.014;2023-07-24T03:59:28;16.20;99.90
56162;DHT22;42045;52.986;6.014;2023-07-24T04:01:54;16.20;99.90
56162;DHT22;42045;52.986;6.014;2023-07-24T04:04:20;16.20;99.90
56162;DHT22;42045;52.986;6.014;2023-07-24T04:06:46;16.20;99.90
56162;DHT22;42045;52.986;6.014;2023-07-24T04:09:11;16.20;99.90
56162;DHT22;42045;52.986;6.014;2023-07-24T04:11:40;16.20;99.90
56162;DHT22;42045;52.986;6.014;2023-07-24T04:14:06;16.30;99.90
56162;DHT22;42045;52.986;6.014;2023-07-24T04:16:31;16.30;99.90
56162;DHT22;42045;52.986;6.014;2023-07-24T04:18:57;16.30;99.90
56162;DHT22;42045;52.986;6.014;2023-07-24T04:21:23;16.30;99.90
56162;DHT22;42045;52.986;6.014;2023-07-24T04:23:49;16.30;99.90
56162;DHT22;42045;52.986;6.014;2023-07-24T04:26:14;16.40;99.90
56162;DHT22;42045;52.986;6.014;2023-07-24T04:28:40;16.40;99.90
56162;DHT22;42045;52.986;6.014;2023-07-24T04:31:05;16.40;99.90
56162;DHT22;42045;52.986;6.014;2023-07-24T04:33:31;16.40;99.90
56162;DHT22;42045;52.986;6.014;2023-07-24T04:35:57;16.40;99.90
56162;DHT22;42045;52.986;6.014;2023-07-24T04:38:23;16.50;99.90
56162;DHT22;42045;52.986;6.014;2023-07-24T04:40:48;16.50;99.90
56162;DHT22;42045;52.986;6.014;2023-07-24T04:43:14;16.50;99.90
56162;DHT22;42045;52.986;6.014;2023-07-24T04:45:40;16.50;99.90
56162;DHT22;42045;52.986;6.014;2023-07-24T04:48:05;16.50;99.90
56162;DHT22;42045;52.986;6.014;2023-07-24T04:50:31;16.60;99.90
56162;DHT22;42045;52.986;6.014;2023-07-24T04:52:58;16.60;99.90
56162;DHT22;42045;52.986;6.014;2023-07-24T04:55:23;16.70;99.90
56162;DHT22;42045;52.986;6.014;2023-07-24T04:57:49;16.70;99.90
56162;DHT22;42045;52.986;6.014;2023-07-24T05:00:14;16.70;99.90
56162;DHT22;42045;52.986;6.014;2023-07-24T05:02:40;16.80;99.90
56162;DHT22;42045;52.986;6.014;2023-07-24T05:05:06;16.70;99.90
56162;DHT22;42045;52.986;6.014;2023-07-24T05:07:32;16.80;99.90
56162;DHT22;42045;52.986;6.014;2023-07-24T05:09:59;16.80;99.90
56162;DHT22;42045;52.986;6.014;2023-07-24T05:12:24;16.80;99.90
56162;DHT22;42045;52.986;6.014;2023-07-24T05:14:50;16.90;99.90
56162;DHT22;42045;52.986;6.014;2023-07-24T05:17:16;16.90;99.90
56162;DHT22;42045;52.986;6.014;2023-07-24T05:19:42;16.90;99.90
56162;DHT22;42045;52.986;6.014;2023-07-24T05:22:07;16.90;99.90
56162;DHT22;42045;52.986;6.014;2023-07-24T05:24:33;16.90;99.90
56162;DHT22;42045;52.986;6.014;2023-07-24T05:26:59;17.00;99.90
56162;DHT22;42045;52.986;6.014;2023-07-24T05:29:25;17.00;99.90
56162;DHT22;42045;52.986;6.014;2023-07-24T05:31:50;16.90;99.90
56162;DHT22;42045;52.986;6.014;2023-07-24T05:34:16;16.90;99.90
56162;DHT22;42045;52.986;6.014;2023-07-24T05:36:41;16.90;99.90
56162;DHT22;42045;52.986;6.014;2023-07-24T05:39:07;16.90;99.90
56162;DHT22;42045;52.986;6.014;2023-07-24T05:41:33;16.90;99.90
56162;DHT22;42045;52.986;6.014;2023-07-24T05:43:58;16.90;99.90
56162;DHT22;42045;52.986;6.014;2023-07-24T05:46:24;16.90;99.90
56162;DHT22;42045;52.986;6.014;2023-07-24T05:48:50;16.90;99.90
56162;DHT22;42045;52.986;6.014;2023-07-24T05:51:15;16.90;99.90
56162;DHT22;42045;52.986;6.014;2023-07-24T05:53:41;16.90;99.90
56162;DHT22;42045;52.986;6.014;2023-07-24T05:56:06;16.90;99.90
56162;DHT22;42045;52.986;6.014;2023-07-24T05:58:32;17.00;99.90
56162;DHT22;42045;52.986;6.014;2023-07-24T06:00:58;17.00;99.90
56162;DHT22;42045;52.986;6.014;2023-07-24T06:03:24;17.10;99.90
56162;DHT22;42045;52.986;6.014;2023-07-24T06:05:53;17.10;99.90
56162;DHT22;42045;52.986;6.014;2023-07-24T06:08:20;17.10;99.90
56162;DHT22;42045;52.986;6.014;2023-07-24T06:10:47;17.20;99.90
56162;DHT22;42045;52.986;6.014;2023-07-24T06:13:13;17.20;99.90
56162;DHT22;42045;52.986;6.014;2023-07-24T06:15:39;17.20;99.90
56162;DHT22;42045;52.986;6.014;2023-07-24T06:18:05;17.30;99.90
56162;DHT22;42045;52.986;6.014;2023-07-24T06:20:31;17.30;99.90
56162;DHT22;42045;52.986;6.014;2023-07-24T06:22:56;17.30;99.90
56162;DHT22;42045;52.986;6.014;2023-07-24T06:25:22;17.40;99.90
56162;DHT22;42045;52.986;6.014;2023-07-24T06:27:47;17.40;99.90
56162;DHT22;42045;52.986;6.014;2023-07-24T06:30:13;17.50;99.90
56162;DHT22;42045;52.986;6.014;2023-07-24T06:32:39;17.50;99.90
56162;DHT22;42045;52.986;6.014;2023-07-24T06:35:05;17.70;99.90
56162;DHT22;42045;52.986;6.014;2023-07-24T06:37:31;17.70;99.90
56162;DHT22;42045;52.986;6.014;2023-07-24T06:39:56;17.80;99.90
56162;DHT22;42045;52.986;6.014;2023-07-24T06:42:22;17.90;99.90
56162;DHT22;42045;52.986;6.014;2023-07-24T06:44:47;17.90;99.90
56162;DHT22;42045;52.986;6.014;2023-07-24T06:47:13;17.90;99.90
56162;DHT22;42045;52.986;6.014;2023-07-24T06:49:39;18.00;99.90
56162;DHT22;42045;52.986;6.014;2023-07-24T06:52:04;18.00;99.90
56162;DHT22;42045;52.986;6.014;2023-07-24T06:54:30;18.00;99.90
56162;DHT22;42045;52.986;6.014;2023-07-24T06:56:56;18.10;99.90
56162;DHT22;42045;52.986;6.014;2023-07-24T06:59:21;18.10;99.90
56162;DHT22;42045;52.986;6.014;2023-07-24T07:01:47;18.10;99.90
56162;DHT22;42045;52.986;6.014;2023-07-24T07:04:13;18.20;99.90
56162;DHT22;42045;52.986;6.014;2023-07-24T07:06:38;18.20;99.90
56162;DHT22;42045;52.986;6.014;2023-07-24T07:09:04;18.20;99.90
56162;DHT22;42045;52.986;6.014;2023-07-24T07:11:30;18.20;99.90
56162;DHT22;42045;52.986;6.014;2023-07-24T07:13:56;18.20;99.90
56162;DHT22;42045;52.986;6.014;2023-07-24T07:16:22;18.20;99.90
56162;DHT22;42045;52.986;6.014;2023-07-24T07:18:47;18.30;99.90
56162;DHT22;42045;52.986;6.014;2023-07-24T07:21:13;18.40;99.90
56162;DHT22;42045;52.986;6.014;2023-07-24T07:23:39;18.50;99.90
56162;DHT22;42045;52.986;6.014;2023-07-24T07:26:04;18.70;99.90
56162;DHT22;42045;52.986;6.014;2023-07-24T07:28:30;18.80;99.90
56162;DHT22;42045;52.986;6.014;2023-07-24T07:30:56;18.80;99.90
56162;DHT22;42045;52.986;6.014;2023-07-24T07:33:21;18.90;99.90
56162;DHT22;42045;52.986;6.014;2023-07-24T07:35:47;19.00;99.90
56162;DHT22;42045;52.986;6.014;2023-07-24T07:38:13;19.00;99.90
56162;DHT22;42045;52.986;6.014;2023-07-24T07:40:39;19.00;99.90
56162;DHT22;42045;52.986;6.014;2023-07-24T07:43:05;19.00;99.90
56162;DHT22;42045;52.986;6.014;2023-07-24T07:45:30;18.90;99.90
56162;DHT22;42045;52.986;6.014;2023-07-24T07:47:56;18.90;99.90
56162;DHT22;42045;52.986;6.014;2023-07-24T07:50:22;18.90;99.90
56162;DHT22;42045;52.986;6.014;2023-07-24T07:52:51;18.90;99.90
56162;DHT22;42045;52.986;6.014;2023-07-24T07:55:18;19.00;99.90
56162;DHT22;42045;52.986;6.014;2023-07-24T07:57:44;19.00;99.90
56162;DHT22;42045;52.986;6.014;2023-07-24T08:00:10;19.10;99.90
56162;DHT22;42045;52.986;6.014;2023-07-24T08:02:36;19.10;99.90
56162;DHT22;42045;52.986;6.014;2023-07-24T08:05:09;19.10;99.90
56162;DHT22;42045;52.986;6.014;2023-07-24T08:07:35;19.20;99.90
56162;DHT22;42045;52.986;6.014;2023-07-24T08:10:01;19.20;99.90
56162;DHT22;42045;52.986;6.014;2023-07-24T08:12:27;19.30;99.90
56162;DHT22;42045;52.986;6.014;2023-07-24T08:14:52;19.30;99.90
56162;DHT22;42045;52.986;6.014;2023-07-24T08:17:18;19.30;99.90
56162;DHT22;42045;52.986;6.014;2023-07-24T08:19:43;19.30;99.90
56162;DHT22;42045;52.986;6.014;2023-07-24T08:22:09;19.30;99.90
56162;DHT22;42045;52.986;6.014;2023-07-24T08:24:35;19.30;99.90
56162;DHT22;42045;52.986;6.014;2023-07-24T08:27:01;19.40;99.90
56162;DHT22;42045;52.986;6.014;2023-07-24T08:29:27;19.40;99.90
56162;DHT22;42045;52.986;6.014;2023-07-24T08:31:53;19.60;99.90
56162;DHT22;42045;52.986;6.014;2023-07-24T08:34:18;19.70;99.90
56162;DHT22;42045;52.986;6.014;2023-07-24T08:36:44;19.80;99.90
56162;DHT22;42045;52.986;6.014;2023-07-24T08:39:10;19.90;99.90
56162;DHT22;42045;52.986;6.014;2023-07-24T08:41:36;20.10;99.90
56162;DHT22;42045;52.986;6.014;2023-07-24T08:44:05;20.30;99.90
56162;DHT22;42045;52.986;6.014;2023-07-24T08:46:35;20.60;99.90
56162;DHT22;42045;52.986;6.014;2023-07-24T08:49:01;20.80;99.90
56162;DHT22;42045;52.986;6.014;2023-07-24T08:51:27;20.80;99.90
56162;DHT22;42045;52.986;6.014;2023-07-24T08:53:54;20.90;99.90
56162;DHT22;42045;52.986;6.014;2023-07-24T08:56:19;21.00;99.90
56162;DHT22;42045;52.986;6.014;2023-07-24T08:58:45;21.20;99.90
56162;DHT22;42045;52.986;6.014;2023-07-24T09:01:11;21.50;99.90
56162;DHT22;42045;52.986;6.014;2023-07-24T09:03:37;21.60;99.90
56162;DHT22;42045;52.986;6.014;2023-07-24T09:06:03;21.70;99.90
56162;DHT22;42045;52.986;6.014;2023-07-24T09:08:39;22.00;99.90
56162;DHT22;42045;52.986;6.014;2023-07-24T09:11:07;22.30;99.90
56162;DHT22;42045;52.986;6.014;2023-07-24T09:13:36;22.60;99.90
56162;DHT22;42045;52.986;6.014;2023-07-24T09:16:02;23.00;99.90
56162;DHT22;42045;52.986;6.014;2023-07-24T09:18:39;23.00;99.90
56162;DHT22;42045;52.986;6.014;2023-07-24T09:21:05;23.00;99.90
56162;DHT22;42045;52.986;6.014;2023-07-24T09:23:30;22.80;99.90
56162;DHT22;42045;52.986;6.014;2023-07-24T09:25:56;22.60;99.90
56162;DHT22;42045;52.986;6.014;2023-07-24T09:28:22;22.70;99.90
56162;DHT22;42045;52.986;6.014;2023-07-24T09:30:55;22.80;99.90
56162;DHT22;42045;52.986;6.014;2023-07-24T09:33:34;23.10;99.90
56162;DHT22;42045;52.986;6.014;2023-07-24T09:36:01;23.00;99.90
56162;DHT22;42045;52.986;6.014;2023-07-24T09:38:27;23.20;99.90
56162;DHT22;42045;52.986;6.014;2023-07-24T09:40:53;23.30;99.90
56162;DHT22;42045;52.986;6.014;2023-07-24T09:43:21;23.10;99.90
56162;DHT22;42045;52.986;6.014;2023-07-24T09:45:48;23.10;99.90
56162;DHT22;42045;52.986;6.014;2023-07-24T09:48:15;23.30;99.90
56162;DHT22;42045;52.986;6.014;2023-07-24T09:50:43;23.30;99.90
56162;DHT22;42045;52.986;6.014;2023-07-24T09:53:52;23.50;99.90
56162;DHT22;42045;52.986;6.014;2023-07-24T09:56:19;23.60;99.90
56162;DHT22;42045;52.986;6.014;2023-07-24T09:58:46;23.50;99.90
56162;DHT22;42045;52.986;6.014;2023-07-24T10:01:15;23.80;99.90
56162;DHT22;42045;52.986;6.014;2023-07-24T10:03:48;23.80;99.90
56162;DHT22;42045;52.986;6.014;2023-07-24T10:06:17;23.70;99.90
56162;DHT22;42045;52.986;6.014;2023-07-24T10:08:43;23.90;99.90
56162;DHT22;42045;52.986;6.014;2023-07-24T10:11:13;24.00;99.90
56162;DHT22;42045;52.986;6.014;2023-07-24T10:13:41;24.10;99.90
56162;DHT22;42045;52.986;6.014;2023-07-24T10:16:07;23.80;99.90
56162;DHT22;42045;52.986;6.014;2023-07-24T10:18:35;23.70;99.90
56162;DHT22;42045;52.986;6.014;2023-07-24T10:21:07;23.90;99.90
56162;DHT22;42045;52.986;6.014;2023-07-24T10:23:37;24.00;99.90
56162;DHT22;42045;52.986;6.014;2023-07-24T10:26:06;24.20;99.90
56162;DHT22;42045;52.986;6.014;2023-07-24T10:28:34;24.50;99.90
56162;DHT22;42045;52.986;6.014;2023-07-24T10:31:01;24.70;99.90
56162;DHT22;42045;52.986;6.014;2023-07-24T10:33:30;24.70;99.90
56162;DHT22;42045;52.986;6.014;2023-07-24T10:36:05;24.40;99.90
56162;DHT22;42045;52.986;6.014;2023-07-24T10:38:39;24.10;99.90
56162;DHT22;42045;52.986;6.014;2023-07-24T10:41:06;24.00;99.90
56162;DHT22;42045;52.986;6.014;2023-07-24T10:43:51;24.00;99.90
56162;DHT22;42045;52.986;6.014;2023-07-24T10:46:19;23.90;99.90
56162;DHT22;42045;52.986;6.014;2023-07-24T10:48:47;24.00;99.90
56162;DHT22;42045;52.986;6.014;2023-07-24T10:51:13;23.90;99.90
56162;DHT22;42045;52.986;6.014;2023-07-24T10:53:49;23.90;99.90
56162;DHT22;42045;52.986;6.014;2023-07-24T10:56:16;24.10;99.90
56162;DHT22;42045;52.986;6.014;2023-07-24T10:58:42;24.40;99.90
56162;DHT22;42045;52.986;6.014;2023-07-24T11:01:08;24.60;99.90
56162;DHT22;42045;52.986;6.014;2023-07-24T11:03:40;24.60;99.90
56162;DHT22;42045;52.986;6.014;2023-07-24T11:06:16;24.40;99.90
56162;DHT22;42045;52.986;6.014;2023-07-24T11:08:42;24.10;99.90
56162;DHT22;42045;52.986;6.014;2023-07-24T11:11:08;24.30;99.90
56162;DHT22;42045;52.986;6.014;2023-07-24T11:13:34;24.40;99.90
56162;DHT22;42045;52.986;6.014;2023-07-24T11:16:05;24.30;99.90
56162;DHT22;42045;52.986;6.014;2023-07-24T11:18:31;24.00;99.90
56162;DHT22;42045;52.986;6.014;2023-07-24T11:20:56;23.80;99.90
56162;DHT22;42045;52.986;6.014;2023-07-24T11:23:23;23.80;99.90
56162;DHT22;42045;52.986;6.014;2023-07-24T11:25:53;24.00;99.90
56162;DHT22;42045;52.986;6.014;2023-07-24T11:28:19;24.10;99.90
56162;DHT22;42045;52.986;6.014;2023-07-24T11:30:45;24.10;99.90
56162;DHT22;42045;52.986;6.014;2023-07-24T11:33:12;23.90;99.90
56162;DHT22;42045;52.986;6.014;2023-07-24T11:35:40;23.70;99.90
56162;DHT22;42045;52.986;6.014;2023-07-24T11:38:08;23.60;99.90
56162;DHT22;42045;52.986;6.014;2023-07-24T11:40:42;23.50;99.90
56162;DHT22;42045;52.986;6.014;2023-07-24T11:43:17;23.40;99.90
56162;DHT22;42045;52.986;6.014;2023-07-24T11:45:43;22.90;99.90
56162;DHT22;42045;52.986;6.014;2023-07-24T11:48:10;22.40;99.90
56162;DHT22;42045;52.986;6.014;2023-07-24T11:51:01;22.10;99.90
56162;DHT22;42045;52.986;6.014;2023-07-24T11:53:28;21.70;99.90
56162;DHT22;42045;52.986;6.014;2023-07-24T11:55:56;21.40;99.90
56162;DHT22;42045;52.986;6.014;2023-07-24T11:58:22;21.10;99.90
56162;DHT22;42045;52.986;6.014;2023-07-24T12:00:52;20.80;99.90
56162;DHT22;42045;52.986;6.014;2023-07-24T12:03:22;20.60;99.90
56162;DHT22;42045;52.986;6.014;2023-07-24T12:05:48;20.40;99.90
56162;DHT22;42045;52.986;6.014;2023-07-24T12:08:14;20.20;99.90
56162;DHT22;42045;52.986;6.014;2023-07-24T12:10:40;20.10;99.90
56162;DHT22;42045;52.986;6.014;2023-07-24T12:13:06;19.90;99.90
56162;DHT22;42045;52.986;6.014;2023-07-24T12:15:33;19.80;99.90
56162;DHT22;42045;52.986;6.014;2023-07-24T12:18:03;19.80;99.90
56162;DHT22;42045;52.986;6.014;2023-07-24T12:20:29;19.60;99.90
56162;DHT22;42045;52.986;6.014;2023-07-24T12:22:55;19.60;99.90
56162;DHT22;42045;52.986;6.014;2023-07-24T12:25:22;19.60;99.90
56162;DHT22;42045;52.986;6.014;2023-07-24T12:27:48;19.60;99.90
56162;DHT22;42045;52.986;6.014;2023-07-24T12:30:14;19.70;99.90
56162;DHT22;42045;52.986;6.014;2023-07-24T12:32:39;19.90;99.90
56162;DHT22;42045;52.986;6.014;2023-07-24T12:35:06;20.00;99.90
56162;DHT22;42045;52.986;6.014;2023-07-24T12:37:32;20.00;99.90
56162;DHT22;42045;52.986;6.014;2023-07-24T12:39:58;20.10;99.90
56162;DHT22;42045;52.986;6.014;2023-07-24T12:42:23;20.20;99.90
56162;DHT22;42045;52.986;6.014;2023-07-24T12:44:49;20.50;99.90
56162;DHT22;42045;52.986;6.014;2023-07-24T12:47:15;20.80;99.90
56162;DHT22;42045;52.986;6.014;2023-07-24T12:49:40;20.90;99.90
56162;DHT22;42045;52.986;6.014;2023-07-24T12:52:06;20.90;99.90
56162;DHT22;42045;52.986;6.014;2023-07-24T12:54:33;20.90;99.90
56162;DHT22;42045;52.986;6.014;2023-07-24T12:57:00;20.90;99.90
56162;DHT22;42045;52.986;6.014;2023-07-24T12:59:25;20.80;99.90
56162;DHT22;42045;52.986;6.014;2023-07-24T13:01:51;20.70;99.90
56162;DHT22;42045;52.986;6.014;2023-07-24T13:04:17;20.70;99.90
56162;DHT22;42045;52.986;6.014;2023-07-24T13:06:44;20.70;99.90
56162;DHT22;42045;52.986;6.014;2023-07-24T13:09:10;20.60;99.90
56162;DHT22;42045;52.986;6.014;2023-07-24T13:11:35;20.60;99.90
56162;DHT22;42045;52.986;6.014;2023-07-24T13:14:01;20.60;99.90
56162;DHT22;42045;52.986;6.014;2023-07-24T13:16:27;20.70;99.90
56162;DHT22;42045;52.986;6.014;2023-07-24T13:18:53;20.70;99.90
56162;DHT22;42045;52.986;6.014;2023-07-24T13:21:18;20.90;99.90
56162;DHT22;42045;52.986;6.014;2023-07-24T13:23:44;21.00;99.90
56162;DHT22;42045;52.986;6.014;2023-07-24T13:26:10;21.10;99.90
56162;DHT22;42045;52.986;6.014;2023-07-24T13:28:42;21.10;99.90
56162;DHT22;42045;52.986;6.014;2023-07-24T13:31:15;21.10;99.90
56162;DHT22;42045;52.986;6.014;2023-07-24T13:33:41;20.90;99.90
56162;DHT22;42045;52.986;6.014;2023-07-24T13:36:06;20.70;99.90
56162;DHT22;42045;52.986;6.014;2023-07-24T13:38:32;20.60;99.90
56162;DHT22;42045;52.986;6.014;2023-07-24T13:40:58;20.60;99.90
56162;DHT22;42045;52.986;6.014;2023-07-24T13:43:24;20.70;99.90
56162;DHT22;42045;52.986;6.014;2023-07-24T13:45:50;20.80;99.90
56162;DHT22;42045;52.986;6.014;2023-07-24T13:48:15;21.00;99.90
56162;DHT22;42045;52.986;6.014;2023-07-24T13:50:41;21.20;99.90
56162;DHT22;42045;52.986;6.014;2023-07-24T13:53:07;21.20;99.90
56162;DHT22;42045;52.986;6.014;2023-07-24T13:55:32;21.30;99.90
56162;DHT22;42045;52.986;6.014;2023-07-24T13:57:58;21.30;99.90
56162;DHT22;42045;52.986;6.014;2023-07-24T14:00:23;21.40;99.90
56162;DHT22;42045;52.986;6.014;2023-07-24T14:02:49;21.30;99.90
56162;DHT22;42045;52.986;6.014;2023-07-24T14:05:16;21.10;99.90
56162;DHT22;42045;52.986;6.014;2023-07-24T14:07:42;21.00;99.90
56162;DHT22;42045;52.986;6.014;2023-07-24T14:10:08;21.10;99.90
56162;DHT22;42045;52.986;6.014;2023-07-24T14:12:34;21.00;99.90
56162;DHT22;42045;52.986;6.014;2023-07-24T14:15:00;20.90;99.90
56162;DHT22;42045;52.986;6.014;2023-07-24T14:17:25;20.70;99.90
56162;DHT22;42045;52.986;6.014;2023-07-24T14:19:51;20.60;99.90
56162;DHT22;42045;52.986;6.014;2023-07-24T14:22:17;20.60;99.90
56162;DHT22;42045;52.986;6.014;2023-07-24T14:24:42;20.70;99.90
56162;DHT22;42045;52.986;6.014;2023-07-24T14:27:08;20.80;99.90
56162;DHT22;42045;52.986;6.014;2023-07-24T14:29:34;21.10;99.90
56162;DHT22;42045;52.986;6.014;2023-07-24T14:31:59;21.20;99.90
56162;DHT22;42045;52.986;6.014;2023-07-24T14:34:25;21.20;99.90
56162;DHT22;42045;52.986;6.014;2023-07-24T14:36:51;21.10;99.90
56162;DHT22;42045;52.986;6.014;2023-07-24T14:39:18;21.10;99.90
56162;DHT22;42045;52.986;6.014;2023-07-24T14:41:43;21.00;99.90
56162;DHT22;42045;52.986;6.014;2023-07-24T14:44:09;20.70;99.90
56162;DHT22;42045;52.986;6.014;2023-07-24T14:46:36;20.50;99.90
56162;DHT22;42045;52.986;6.014;2023-07-24T14:49:01;20.40;99.90
56162;DHT22;42045;52.986;6.014;2023-07-24T14:51:27;20.20;99.90
56162;DHT22;42045;52.986;6.014;2023-07-24T14:53:53;20.00;99.90
56162;DHT22;42045;52.986;6.014;2023-07-24T14:56:19;20.00;99.90
56162;DHT22;42045;52.986;6.014;2023-07-24T14:58:45;20.10;99.90
56162;DHT22;42045;52.986;6.014;2023-07-24T15:01:12;20.00;99.90
56162;DHT22;42045;52.986;6.014;2023-07-24T15:03:37;19.90;99.90
56162;DHT22;42045;52.986;6.014;2023-07-24T15:06:03;19.70;99.90
56162;DHT22;42045;52.986;6.014;2023-07-24T15:08:32;19.60;99.90
56162;DHT22;42045;52.986;6.014;2023-07-24T15:10:58;19.50;99.90
56162;DHT22;42045;52.986;6.014;2023-07-24T15:13:23;19.50;99.90
56162;DHT22;42045;52.986;6.014;2023-07-24T15:15:49;19.40;99.90
56162;DHT22;42045;52.986;6.014;2023-07-24T15:18:14;19.30;99.90
56162;DHT22;42045;52.986;6.014;2023-07-24T15:20:40;19.20;99.90
56162;DHT22;42045;52.986;6.014;2023-07-24T15:23:06;19.20;99.90
56162;DHT22;42045;52.986;6.014;2023-07-24T15:25:31;19.40;99.90
56162;DHT22;42045;52.986;6.014;2023-07-24T15:27:57;19.40;99.90
56162;DHT22;42045;52.986;6.014;2023-07-24T15:30:24;19.30;99.90
56162;DHT22;42045;52.986;6.014;2023-07-24T15:32:50;19.00;99.90
56162;DHT22;42045;52.986;6.014;2023-07-24T15:35:15;18.90;99.90